Time;durP1;ratioP1;P1;durP2;ratioP2;P2;SDS_P1;SDS_P2;PMS_P1;PMS_P2;Temp;Humidity;BMP_temperature;BMP_pressure;BME280_temperature;BME280_humidity;BME280_pressure;Samples;Min_cycle;Max_cycle;Signal;HPM_P1;HPM_P2
2021/10/25 00:01:20;;;;;;;28.08;7.93;;;;;;;;;;5060356;28;20128;-68
2021/10/25 00:03:47;;;;;;;29.60;6.85;;;;;;;;;;5059139;28;20467;-67
2021/10/25 00:06:13;;;;;;;28.60;7.07;;;;;;;;;;5056918;28;20041;-67
2021/10/25 00:08:41;;;;;;;28.17;6.95;;;;;;;;;;5058490;28;20080;-67
2021/10/25 00:11:07;;;;;;;28.13;7.22;;;;;;;;;;5056603;28;20468;-67
2021/10/25 00:13:33;;;;;;;25.38;7.22;;;;;;;;;;5053844;28;20049;-67
2021/10/25 00:16:01;;;;;;;22.13;6.88;;;;;;;;;;5065243;28;20413;-67
2021/10/25 00:18:28;;;;;;;22.65;7.57;;;;;;;;;;5063939;28;20048;-67
2021/10/25 00:20:54;;;;;;;29.65;7.90;;;;;;;;;;5064688;28;20124;-67
2021/10/25 00:23:21;;;;;;;28.05;7.07;;;;;;;;;;5060495;28;20053;-67
2021/10/25 00:25:47;;;;;;;25.92;6.70;;;;;;;;;;5068785;28;20076;-67
2021/10/25 00:28:14;;;;;;;20.98;6.65;;;;;;;;;;5067969;28;20044;-67
2021/10/25 00:30:41;;;;;;;30.80;7.95;;;;;;;;;;5068269;28;20078;-67
2021/10/25 00:33:07;;;;;;;23.25;7.57;;;;;;;;;;5065352;28;20323;-67
2021/10/25 00:35:34;;;;;;;35.47;7.60;;;;;;;;;;5063826;28;20049;-68
2021/10/25 00:38:01;;;;;;;24.38;6.93;;;;;;;;;;5064397;28;20141;-67
2021/10/25 00:40:28;;;;;;;34.72;7.60;;;;;;;;;;5063271;28;20124;-67
2021/10/25 00:42:54;;;;;;;20.83;6.95;;;;;;;;;;5063173;28;20155;-67
2021/10/25 00:45:22;;;;;;;33.38;8.30;;;;;;;;;;5061453;28;20052;-67
2021/10/25 00:47:49;;;;;;;31.65;7.90;;;;;;;;;;5070630;28;20569;-67
2021/10/25 00:50:15;;;;;;;30.10;7.15;;;;;;;;;;5069119;28;20080;-68
2021/10/25 00:52:43;;;;;;;24.83;6.95;;;;;;;;;;5063805;28;20132;-67
2021/10/25 00:55:10;;;;;;;25.92;6.85;;;;;;;;;;5059818;28;20579;-67
2021/10/25 00:57:36;;;;;;;31.30;7.93;;;;;;;;;;5070019;28;20132;-67
2021/10/25 01:00:07;;;;;;;27.98;7.03;;;;;;;;;;5065485;28;20132;-68
2021/10/25 01:02:33;;;;;;;27.92;6.78;;;;;;;;;;5060179;28;20646;-67
2021/10/25 01:05:00;;;;;;;35.97;8.27;;;;;;;;;;5070532;28;20825;-67
2021/10/25 01:07:27;;;;;;;22.95;7.13;;;;;;;;;;5064532;28;20144;-68
2021/10/25 01:09:54;;;;;;;34.67;7.10;;;;;;;;;;5064426;28;20044;-67
2021/10/25 01:12:21;;;;;;;22.17;7.07;;;;;;;;;;5064588;28;20095;-67
2021/10/25 01:14:47;;;;;;;25.60;7.22;;;;;;;;;;5065053;28;20120;-68
2021/10/25 01:17:14;;;;;;;28.88;7.22;;;;;;;;;;5069881;28;20106;-67
2021/10/25 01:19:40;;;;;;;28.85;6.80;;;;;;;;;;5067357;28;20048;-67
2021/10/25 01:22:07;;;;;;;24.05;8.50;;;;;;;;;;5064935;28;20087;-67
2021/10/25 01:24:33;;;;;;;24.77;7.68;;;;;;;;;;5065849;28;20136;-67
2021/10/25 01:27:00;;;;;;;35.97;8.02;;;;;;;;;;5061975;28;20207;-67
2021/10/25 01:29:27;;;;;;;30.33;8.10;;;;;;;;;;5065679;28;20135;-67
2021/10/25 01:31:53;;;;;;;30.15;9.07;;;;;;;;;;5060900;28;20123;-67
2021/10/25 01:34:20;;;;;;;29.17;8.45;;;;;;;;;;5066481;28;20131;-67
2021/10/25 01:36:47;;;;;;;24.30;8.27;;;;;;;;;;5063968;28;20048;-67
2021/10/25 01:39:13;;;;;;;17.70;7.43;;;;;;;;;;5061368;28;20140;-67
2021/10/25 01:41:40;;;;;;;29.88;8.07;;;;;;;;;;5067015;28;20578;-67
2021/10/25 01:44:09;;;;;;;30.13;7.60;;;;;;;;;;5065552;28;20501;-67
2021/10/25 01:46:35;;;;;;;26.90;8.07;;;;;;;;;;5065140;28;20140;-67
2021/10/25 01:49:03;;;;;;;33.50;8.27;;;;;;;;;;5068245;28;20044;-67
2021/10/25 01:51:30;;;;;;;33.25;7.97;;;;;;;;;;5056260;28;20079;-67
2021/10/25 01:53:56;;;;;;;26.65;8.02;;;;;;;;;;5064053;28;20048;-68
2021/10/25 01:56:23;;;;;;;29.83;9.48;;;;;;;;;;5043520;28;20488;-68
2021/10/25 01:58:50;;;;;;;27.75;9.07;;;;;;;;;;5061628;28;20135;-67
2021/10/25 02:01:17;;;;;;;28.27;9.23;;;;;;;;;;5067547;28;20569;-67
2021/10/25 02:03:44;;;;;;;24.25;7.88;;;;;;;;;;5063457;28;20099;-67
2021/10/25 02:06:10;;;;;;;24.37;8.37;;;;;;;;;;5066799;28;20058;-67
2021/10/25 02:08:37;;;;;;;30.25;8.77;;;;;;;;;;5063032;28;20596;-67
2021/10/25 02:11:03;;;;;;;25.23;8.48;;;;;;;;;;5068111;28;20095;-67
2021/10/25 02:13:30;;;;;;;30.20;8.68;;;;;;;;;;5065270;28;20095;-67
2021/10/25 02:15:57;;;;;;;30.95;8.70;;;;;;;;;;5065395;28;20099;-67
2021/10/25 02:18:23;;;;;;;22.10;8.60;;;;;;;;;;5063437;28;20110;-67
2021/10/25 02:20:50;;;;;;;26.48;7.93;;;;;;;;;;5064463;28;20132;-67
2021/10/25 02:23:17;;;;;;;22.98;8.48;;;;;;;;;;5062010;28;20424;-67
2021/10/25 02:25:45;;;;;;;28.58;8.45;;;;;;;;;;5065900;28;20469;-67
2021/10/25 02:28:12;;;;;;;21.42;7.35;;;;;;;;;;5063395;28;20155;-67
2021/10/25 02:30:38;;;;;;;31.10;8.02;;;;;;;;;;5060650;28;20055;-67
2021/10/25 02:33:05;;;;;;;25.98;9.10;;;;;;;;;;5059627;28;20060;-67
2021/10/25 02:35:32;;;;;;;23.83;7.53;;;;;;;;;;5059273;28;20071;-67
2021/10/25 02:37:59;;;;;;;25.83;8.45;;;;;;;;;;5064225;28;20085;-67
2021/10/25 02:40:26;;;;;;;22.40;7.13;;;;;;;;;;5068273;28;20135;-67
2021/10/25 02:42:53;;;;;;;17.55;7.55;;;;;;;;;;5057109;28;20099;-67
2021/10/25 02:45:20;;;;;;;30.97;7.80;;;;;;;;;;5060690;28;20139;-67
2021/10/25 02:47:46;;;;;;;23.95;8.50;;;;;;;;;;5060313;28;20334;-67
2021/10/25 02:50:13;;;;;;;30.30;8.18;;;;;;;;;;5058541;28;20155;-67
2021/10/25 02:52:40;;;;;;;19.93;7.30;;;;;;;;;;5065729;28;20084;-67
2021/10/25 02:55:07;;;;;;;33.70;7.45;;;;;;;;;;5065830;28;20055;-67
2021/10/25 02:57:34;;;;;;;23.83;6.38;;;;;;;;;;5063883;28;20068;-67
2021/10/25 03:00:05;;;;;;;23.33;7.85;;;;;;;;;;5065427;28;20072;-67
2021/10/25 03:02:32;;;;;;;23.20;7.07;;;;;;;;;;5061754;28;20131;-67
2021/10/25 03:04:59;;;;;;;21.33;7.45;;;;;;;;;;5061438;28;20056;-67
2021/10/25 03:07:26;;;;;;;25.63;7.55;;;;;;;;;;5063385;28;20131;-67
2021/10/25 03:09:52;;;;;;;26.42;7.80;;;;;;;;;;5064204;28;20413;-67
2021/10/25 03:12:19;;;;;;;17.48;7.22;;;;;;;;;;5037990;28;20081;-67
2021/10/25 03:14:45;;;;;;;19.98;7.03;;;;;;;;;;5056843;28;20085;-67
2021/10/25 03:17:12;;;;;;;22.02;7.63;;;;;;;;;;5059293;28;20052;-67
2021/10/25 03:19:40;;;;;;;22.20;7.13;;;;;;;;;;5059639;28;20140;-67
2021/10/25 03:22:06;;;;;;;;;;;;;;;;;;5055190;28;20335;-67
2021/10/25 03:24:34;;;;;;;18.30;6.78;;;;;;;;;;5060385;28;19952;-67
2021/10/25 03:27:01;;;;;;;26.45;7.55;;;;;;;;;;5060032;28;20076;-67
2021/10/25 03:29:28;;;;;;;20.17;7.63;;;;;;;;;;5065267;28;20088;-67
2021/10/25 03:31:55;;;;;;;24.52;7.60;;;;;;;;;;5060563;28;20084;-67
2021/10/25 03:34:21;;;;;;;26.08;7.88;;;;;;;;;;5064337;28;20084;-67
2021/10/25 03:36:49;;;;;;;17.02;7.43;;;;;;;;;;5059323;28;20079;-67
2021/10/25 03:39:21;;;;;;;20.15;7.38;;;;;;;;;;5063944;28;20056;-67
2021/10/25 03:41:49;;;;;;;29.27;7.57;;;;;;;;;;5054983;28;20135;-67
2021/10/25 03:44:21;;;;;;;23.92;7.72;;;;;;;;;;5059446;28;20547;-67
2021/10/25 03:46:53;;;;;;;21.00;7.47;;;;;;;;;;5062625;28;20568;-67
2021/10/25 03:52:03;;;;;;;22.73;7.70;;;;;;;;;;5059115;28;20131;-67
2021/10/25 03:54:44;;;;;;;26.35;8.13;;;;;;;;;;5060137;28;20049;-67
2021/10/25 03:57:47;;;;;;;27.67;7.22;;;;;;;;;;5063506;28;20464;-67
2021/10/25 04:03:22;;;;;;;26.13;7.97;;;;;;;;;;5024462;28;20045;-67
2021/10/25 04:27:53;;;;;;;30.55;8.45;;;;;;;;;;5059309;28;20136;-67
2021/10/25 04:30:20;;;;;;;22.83;7.53;;;;;;;;;;5060316;28;20171;-67
2021/10/25 04:32:47;;;;;;;34.20;7.47;;;;;;;;;;5059501;28;20080;-67
2021/10/25 04:35:14;;;;;;;21.95;7.38;;;;;;;;;;5060634;28;20147;-67
2021/10/25 04:37:41;;;;;;;22.77;7.88;;;;;;;;;;5059464;28;20409;-67
2021/10/25 04:40:08;;;;;;;19.45;7.25;;;;;;;;;;5061268;28;20148;-67
2021/10/25 04:42:34;;;;;;;21.38;5.68;;;;;;;;;;5058052;28;20143;-67
2021/10/25 04:45:01;;;;;;;34.70;9.00;;;;;;;;;;5058842;28;20132;-67
2021/10/25 04:47:28;;;;;;;28.80;8.18;;;;;;;;;;5057962;28;20839;-67
2021/10/25 04:49:54;;;;;;;21.85;8.18;;;;;;;;;;5058784;28;20135;-67
2021/10/25 04:52:21;;;;;;;28.02;8.68;;;;;;;;;;5061807;28;20101;-67
2021/10/25 04:54:47;;;;;;;21.92;8.60;;;;;;;;;;5060200;28;20080;-67
2021/10/25 04:57:14;;;;;;;26.67;8.95;;;;;;;;;;5056540;28;20045;-67
2021/10/25 04:59:41;;;;;;;30.15;8.93;;;;;;;;;;5059750;28;20080;-67
2021/10/25 05:02:08;;;;;;;22.88;8.77;;;;;;;;;;5056695;28;20384;-68
2021/10/25 05:04:34;;;;;;;35.53;9.60;;;;;;;;;;5061140;28;20528;-67
2021/10/25 05:07:01;;;;;;;31.55;9.20;;;;;;;;;;5061115;28;20155;-67
2021/10/25 05:09:28;;;;;;;40.20;9.50;;;;;;;;;;5063575;28;20090;-68
2021/10/25 05:11:54;;;;;;;34.05;9.68;;;;;;;;;;5062451;28;20100;-67
2021/10/25 05:14:21;;;;;;;28.33;8.93;;;;;;;;;;5062306;28;20091;-67
2021/10/25 05:16:47;;;;;;;32.80;8.70;;;;;;;;;;5059599;28;20136;-67
2021/10/25 05:19:13;;;;;;;27.30;9.50;;;;;;;;;;5059927;28;20147;-67
2021/10/25 05:21:40;;;;;;;30.75;9.80;;;;;;;;;;5062772;28;20072;-67
2021/10/25 05:24:07;;;;;;;21.42;9.25;;;;;;;;;;5061971;28;20587;-67
2021/10/25 05:26:33;;;;;;;31.92;9.25;;;;;;;;;;5061345;28;20445;-67
2021/10/25 05:29:00;;;;;;;34.07;9.47;;;;;;;;;;5061924;28;20079;-67
2021/10/25 05:31:27;;;;;;;29.90;8.55;;;;;;;;;;5064509;28;20073;-67
2021/10/25 05:33:54;;;;;;;33.20;9.68;;;;;;;;;;5061546;28;20052;-67
2021/10/25 05:36:20;;;;;;;38.05;10.02;;;;;;;;;;5062460;28;20079;-67
2021/10/25 05:38:47;;;;;;;32.67;10.82;;;;;;;;;;5062588;28;20083;-67
2021/10/25 05:41:14;;;;;;;26.08;9.95;;;;;;;;;;5060472;28;20052;-67
2021/10/25 05:43:41;;;;;;;31.27;10.52;;;;;;;;;;5062363;28;20052;-67
2021/10/25 05:46:10;;;;;;;28.88;8.45;;;;;;;;;;5061085;28;20674;-67
2021/10/25 05:48:40;;;;;;;33.22;10.68;;;;;;;;;;5061510;28;20044;-67
2021/10/25 05:51:06;;;;;;;29.95;11.70;;;;;;;;;;5060611;28;20132;-67
2021/10/25 05:53:33;;;;;;;32.38;11.88;;;;;;;;;;5059801;28;20130;-67
2021/10/25 05:56:00;;;;;;;38.58;11.48;;;;;;;;;;5060661;28;20527;-67
2021/10/25 05:58:27;;;;;;;34.70;11.52;;;;;;;;;;5062164;28;20133;-67
2021/10/25 06:00:59;;;;;;;37.67;11.73;;;;;;;;;;5061924;28;20098;-67
2021/10/25 06:03:28;;;;;;;36.20;12.18;;;;;;;;;;5061479;28;20044;-67
2021/10/25 06:05:55;;;;;;;47.20;12.85;;;;;;;;;;5061322;28;20083;-67
2021/10/25 06:08:22;;;;;;;57.92;13.25;;;;;;;;;;5065480;28;20106;-67
2021/10/25 06:10:49;;;;;;;38.40;12.27;;;;;;;;;;5060494;28;20072;-68
2021/10/25 06:15:58;;;;;;;37.95;13.38;;;;;;;;;;5061347;28;20135;-67
2021/10/25 06:18:26;;;;;;;38.65;13.32;;;;;;;;;;5058084;28;20045;-67
2021/10/25 06:20:52;;;;;;;45.72;14.00;;;;;;;;;;5059243;28;20139;-67
2021/10/25 06:23:19;;;;;;;37.88;12.77;;;;;;;;;;5059755;28;20136;-67
2021/10/25 06:25:51;;;;;;;40.40;13.30;;;;;;;;;;5061075;28;20148;-67
2021/10/25 06:28:18;;;;;;;42.58;13.52;;;;;;;;;;5060719;28;20246;-67
2021/10/25 06:30:53;;;;;;;39.42;13.90;;;;;;;;;;5063290;28;20500;-67
2021/10/25 06:33:21;;;;;;;41.33;12.85;;;;;;;;;;5059780;28;20176;-67
2021/10/25 06:35:57;;;;;;;44.28;14.18;;;;;;;;;;5060490;28;20090;-68
2021/10/25 06:38:30;;;;;;;43.08;15.13;;;;;;;;;;5059717;28;20139;-67
2021/10/25 06:40:58;;;;;;;42.75;16.20;;;;;;;;;;5058742;28;20044;-67
2021/10/25 06:43:24;;;;;;;40.00;14.50;;;;;;;;;;5061516;28;20528;-67
2021/10/25 06:45:52;;;;;;;39.38;15.02;;;;;;;;;;5060010;28;20136;-67
2021/10/25 06:48:18;;;;;;;45.45;15.43;;;;;;;;;;5060302;28;20144;-67
2021/10/25 06:50:45;;;;;;;43.28;15.15;;;;;;;;;;5060969;28;20136;-67
2021/10/25 06:53:14;;;;;;;38.25;14.70;;;;;;;;;;5060172;28;20144;-67
2021/10/25 06:55:40;;;;;;;40.53;14.73;;;;;;;;;;5057254;28;20071;-67
2021/10/25 06:58:07;;;;;;;45.25;14.82;;;;;;;;;;5058192;28;20131;-68
2021/10/25 07:00:34;;;;;;;38.95;15.05;;;;;;;;;;5058154;28;20151;-67
2021/10/25 07:03:00;;;;;;;42.05;15.32;;;;;;;;;;5056352;28;20073;-67
2021/10/25 07:05:31;;;;;;;37.25;14.52;;;;;;;;;;5057942;28;20044;-67
2021/10/25 07:07:58;;;;;;;38.38;14.68;;;;;;;;;;5064482;28;20075;-67
2021/10/25 07:10:25;;;;;;;32.80;14.95;;;;;;;;;;5060436;28;20050;-67
2021/10/25 07:13:12;;;;;;;33.78;13.85;;;;;;;;;;5067406;28;20050;-67
2021/10/25 07:15:46;;;;;;;39.22;13.77;;;;;;;;;;5051923;28;20058;-67
2021/10/25 07:18:20;;;;;;;36.70;12.65;;;;;;;;;;5058206;28;20501;-67
2021/10/25 07:21:15;;;;;;;28.65;12.27;;;;;;;;;;5063647;28;20139;-67
2021/10/25 08:07:40;;;;;;;26.40;8.85;;;;;;;;;;5058228;28;20075;-67
2021/10/25 08:10:12;;;;;;;19.25;7.72;;;;;;;;;;5058172;28;20084;-67
2021/10/25 08:12:45;;;;;;;23.75;8.05;;;;;;;;;;5057576;28;20049;-67
2021/10/25 08:15:20;;;;;;;19.85;8.13;;;;;;;;;;5058835;28;20136;-67
2021/10/25 08:17:51;;;;;;;29.25;9.02;;;;;;;;;;5060180;28;20076;-67
2021/10/25 08:20:18;;;;;;;24.10;8.05;;;;;;;;;;5056007;28;20049;-67
2021/10/25 08:22:45;;;;;;;18.67;8.20;;;;;;;;;;5055401;28;20129;-67
2021/10/25 08:25:12;;;;;;;25.17;7.80;;;;;;;;;;5059583;28;20382;-67
2021/10/25 08:27:39;;;;;;;20.98;8.07;;;;;;;;;;5059764;28;20095;-67
2021/10/25 08:30:06;;;;;;;30.65;8.77;;;;;;;;;;5058937;28;20048;-67
2021/10/25 08:35:18;;;;;;;26.45;7.32;;;;;;;;;;5062589;28;20752;-67
2021/10/25 08:40:37;;;;;;;18.90;7.30;;;;;;;;;;5062530;28;20064;-67
2021/10/25 08:43:05;;;;;;;25.00;8.07;;;;;;;;;;5065877;28;20087;-67
2021/10/25 08:45:33;;;;;;;21.08;7.90;;;;;;;;;;5061053;28;20455;-67
2021/10/25 08:48:01;;;;;;;23.48;7.53;;;;;;;;;;5061043;28;20151;-67
2021/10/25 08:50:30;;;;;;;21.23;8.10;;;;;;;;;;5060369;28;20084;-67
2021/10/25 08:52:57;;;;;;;20.17;6.85;;;;;;;;;;5062236;28;20146;-67
2021/10/25 08:55:24;;;;;;;18.35;8.02;;;;;;;;;;5063897;28;20097;-67
2021/10/25 08:57:51;;;;;;;21.25;7.40;;;;;;;;;;5060613;28;20098;-68
2021/10/25 09:00:21;;;;;;;18.15;7.75;;;;;;;;;;5060334;28;20439;-67
2021/10/25 09:02:58;;;;;;;26.08;7.72;;;;;;;;;;5059263;28;20130;-67
2021/10/25 09:05:26;;;;;;;18.90;7.70;;;;;;;;;;5060505;28;20047;-67
2021/10/25 09:07:54;;;;;;;14.15;7.28;;;;;;;;;;5062720;28;20127;-68
2021/10/25 09:10:20;;;;;;;;;;;;;;;;;;5061495;28;20123;-67
2021/10/25 09:12:55;;;;;;;21.15;6.70;;;;;;;;;;5066791;28;19966;-67
2021/10/25 09:15:23;;;;;;;21.20;7.22;;;;;;;;;;5064439;28;20048;-68
2021/10/25 09:17:50;;;;;;;17.70;7.05;;;;;;;;;;5063348;28;20131;-67
2021/10/25 09:20:17;;;;;;;23.63;6.80;;;;;;;;;;5064500;28;20135;-67
2021/10/25 09:22:45;;;;;;;21.45;7.38;;;;;;;;;;5066208;28;20102;-68
2021/10/25 09:25:12;;;;;;;25.83;7.85;;;;;;;;;;5067077;28;20139;-68
2021/10/25 09:27:45;;;;;;;17.33;7.00;;;;;;;;;;5060767;28;20084;-67
2021/10/25 09:30:13;;;;;;;24.25;7.70;;;;;;;;;;5059682;28;20136;-67
2021/10/25 09:32:42;;;;;;;20.65;6.97;;;;;;;;;;5060395;28;20071;-67
2021/10/25 09:35:17;;;;;;;20.33;6.97;;;;;;;;;;5062602;28;20127;-68
2021/10/25 09:37:57;;;;;;;19.73;6.97;;;;;;;;;;5061041;28;20068;-68
2021/10/25 09:40:37;;;;;;;17.73;7.28;;;;;;;;;;5056110;28;20106;-68
2021/10/25 09:43:15;;;;;;;17.95;5.97;;;;;;;;;;5062822;28;20080;-67
2021/10/25 09:45:51;;;;;;;22.45;7.18;;;;;;;;;;5059889;28;20123;-67
2021/10/25 09:51:15;;;;;;;23.98;6.90;;;;;;;;;;5062997;28;20483;-68
2021/10/25 09:54:02;;;;;;;19.58;7.13;;;;;;;;;;5060444;28;20064;-67
2021/10/25 09:56:31;;;;;;;17.20;6.83;;;;;;;;;;5062437;28;20083;-67
2021/10/25 09:59:10;;;;;;;21.38;7.05;;;;;;;;;;5061166;28;20105;-68
2021/10/25 10:01:36;;;;;;;;;;;;;;;;;;5061242;28;20167;-67
2021/10/25 10:04:03;;;;;;;22.33;7.40;;;;;;;;;;5057554;28;20865;-69
2021/10/25 10:06:30;;;;;;;25.50;7.25;;;;;;;;;;5066013;28;20550;-68
2021/10/25 10:08:58;;;;;;;18.63;7.53;;;;;;;;;;5063833;28;20091;-68
2021/10/25 10:11:26;;;;;;;19.90;7.22;;;;;;;;;;5060599;28;20415;-68
2021/10/25 10:13:52;;;;;;;16.52;7.22;;;;;;;;;;5057286;28;20135;-67
2021/10/25 10:16:19;;;;;;;20.20;6.53;;;;;;;;;;5058316;28;20049;-68
2021/10/25 10:18:50;;;;;;;20.52;6.88;;;;;;;;;;5045749;28;20073;-67
2021/10/25 10:21:17;;;;;;;16.90;6.07;;;;;;;;;;5058074;28;20485;-68
2021/10/25 10:23:52;;;;;;;22.60;6.38;;;;;;;;;;5060587;28;20041;-67
2021/10/25 10:26:19;;;;;;;18.48;6.22;;;;;;;;;;5059494;28;20077;-68
2021/10/25 10:28:50;;;;;;;22.40;6.50;;;;;;;;;;5058867;28;20135;-68
2021/10/25 10:31:20;;;;;;;26.52;7.45;;;;;;;;;;5058485;28;20096;-68
2021/10/25 10:33:51;;;;;;;20.60;7.18;;;;;;;;;;5058206;28;20055;-68
2021/10/25 10:36:19;;;;;;;15.18;6.55;;;;;;;;;;5059112;28;20140;-67
2021/10/25 10:38:46;;;;;;;16.08;6.47;;;;;;;;;;5062384;28;20052;-67
2021/10/25 10:41:17;;;;;;;24.05;7.50;;;;;;;;;;5059265;28;20051;-68
2021/10/25 10:43:56;;;;;;;21.25;7.03;;;;;;;;;;5059507;28;20056;-67
2021/10/25 10:46:23;;;;;;;20.35;6.53;;;;;;;;;;5057111;28;20072;-67
2021/10/25 10:48:55;;;;;;;21.30;6.97;;;;;;;;;;5060090;28;20052;-68
2021/10/25 10:51:25;;;;;;;24.45;7.80;;;;;;;;;;5059231;28;20075;-68
2021/10/25 10:54:00;;;;;;;23.88;6.70;;;;;;;;;;5060660;28;20106;-68
2021/10/25 10:56:34;;;;;;;20.55;6.57;;;;;;;;;;5060628;28;20069;-68
2021/10/25 11:01:37;;;;;;;13.07;5.95;;;;;;;;;;5060288;28;20601;-68
2021/10/25 11:04:05;;;;;;;14.70;5.72;;;;;;;;;;5058000;28;20053;-68
2021/10/25 11:06:31;;;;;;;18.70;7.47;;;;;;;;;;5060964;28;20129;-68
2021/10/25 11:08:58;;;;;;;20.77;6.65;;;;;;;;;;5057604;28;20390;-68
2021/10/25 11:11:25;;;;;;;18.90;6.97;;;;;;;;;;5059062;28;22250;-68
2021/10/25 11:13:56;;;;;;;20.58;6.30;;;;;;;;;;5059289;28;20076;-68
2021/10/25 11:16:33;;;;;;;21.00;6.70;;;;;;;;;;5059559;28;20143;-68
2021/10/25 11:19:01;;;;;;;25.60;6.85;;;;;;;;;;5059839;28;20838;-68
2021/10/25 11:21:30;;;;;;;15.35;6.57;;;;;;;;;;5058331;28;20072;-68
2021/10/25 11:23:57;;;;;;;21.38;6.40;;;;;;;;;;5060167;28;20044;-68
2021/10/25 11:26:24;;;;;;;;;;;;;;;;;;5057444;28;20097;-68
2021/10/25 11:28:56;;;;;;;18.30;6.28;;;;;;;;;;5059937;28;19929;-68
2021/10/25 11:31:23;;;;;;;15.70;6.60;;;;;;;;;;5060829;28;20136;-68
2021/10/25 11:33:50;;;;;;;17.98;6.57;;;;;;;;;;5059361;28;20051;-68
2021/10/25 11:36:20;;;;;;;19.15;6.70;;;;;;;;;;5058886;28;20143;-68
2021/10/25 11:38:46;;;;;;;24.73;6.70;;;;;;;;;;5058269;28;20139;-68
2021/10/25 11:41:13;;;;;;;15.32;6.82;;;;;;;;;;5057651;28;20052;-68
2021/10/25 11:43:39;;;;;;;17.92;6.97;;;;;;;;;;5059530;28;20087;-68
2021/10/25 11:46:13;;;;;;;24.77;7.45;;;;;;;;;;5059051;28;20070;-68
2021/10/25 11:48:41;;;;;;;21.67;7.18;;;;;;;;;;5058724;28;20056;-68
2021/10/25 11:51:09;;;;;;;23.23;6.50;;;;;;;;;;5057399;28;20124;-68
2021/10/25 11:53:36;;;;;;;22.00;6.45;;;;;;;;;;5057763;28;20135;-68
2021/10/25 11:56:11;;;;;;;17.98;6.63;;;;;;;;;;5059340;28;20053;-69
2021/10/25 11:58:37;;;;;;;15.77;7.00;;;;;;;;;;5059901;28;20051;-68
2021/10/25 12:01:07;;;;;;;21.42;7.40;;;;;;;;;;5042320;28;20470;-68
2021/10/25 12:03:37;;;;;;;19.30;7.53;;;;;;;;;;5056635;28;20103;-68
2021/10/25 12:06:11;;;;;;;23.08;7.28;;;;;;;;;;5058107;28;20388;-68
2021/10/25 12:08:38;;;;;;;18.60;6.40;;;;;;;;;;5058186;28;20133;-68
2021/10/25 12:11:05;;;;;;;15.48;7.32;;;;;;;;;;5057856;28;20469;-68
2021/10/25 12:13:31;;;;;;;18.10;7.22;;;;;;;;;;5056828;28;20462;-68
2021/10/25 12:16:01;;;;;;;16.42;7.15;;;;;;;;;;5058256;28;20178;-68
2021/10/25 12:18:28;;;;;;;21.20;7.68;;;;;;;;;;5060440;28;20037;-67
2021/10/25 12:20:54;;;;;;;19.27;7.63;;;;;;;;;;5062163;28;20128;-68
2021/10/25 12:23:27;;;;;;;17.08;8.32;;;;;;;;;;5064117;28;20045;-68
2021/10/25 12:25:54;;;;;;;17.92;7.25;;;;;;;;;;5062271;28;20127;-68
2021/10/25 12:28:21;;;;;;;17.63;7.40;;;;;;;;;;5063402;28;20622;-68
2021/10/25 12:30:50;;;;;;;21.30;8.15;;;;;;;;;;5062279;28;20102;-68
2021/10/25 12:33:19;;;;;;;14.50;7.20;;;;;;;;;;5062241;28;20520;-68
2021/10/25 12:35:46;;;;;;;23.83;7.90;;;;;;;;;;5061833;28;20135;-68
2021/10/25 12:38:23;;;;;;;24.55;7.80;;;;;;;;;;5065613;28;20144;-68
2021/10/25 12:40:59;;;;;;;16.63;7.53;;;;;;;;;;5061110;28;20053;-68
2021/10/25 12:43:36;;;;;;;21.90;8.43;;;;;;;;;;5062196;28;20119;-68
2021/10/25 12:46:06;;;;;;;19.88;7.68;;;;;;;;;;5061581;28;20044;-68
2021/10/25 12:48:45;;;;;;;24.13;7.85;;;;;;;;;;5060800;28;20484;-68
2021/10/25 12:51:12;;;;;;;21.35;9.07;;;;;;;;;;5062717;28;20082;-67
2021/10/25 12:53:46;;;;;;;19.20;8.13;;;;;;;;;;5064965;28;20143;-68
2021/10/25 12:56:13;;;;;;;16.13;7.18;;;;;;;;;;5061103;28;20421;-68
2021/10/25 12:58:44;;;;;;;21.67;8.02;;;;;;;;;;5062437;28;20107;-67
2021/10/25 13:01:12;;;;;;;20.65;7.88;;;;;;;;;;5062357;28;20135;-68
2021/10/25 13:03:47;;;;;;;19.15;7.40;;;;;;;;;;5062652;28;20037;-67
2021/10/25 13:06:14;;;;;;;21.42;7.32;;;;;;;;;;5059723;28;20048;-67
2021/10/25 13:08:41;;;;;;;19.13;8.13;;;;;;;;;;5061200;28;20153;-68
2021/10/25 13:11:13;;;;;;;20.40;8.50;;;;;;;;;;5062326;28;20081;-68
2021/10/25 13:13:44;;;;;;;19.63;8.20;;;;;;;;;;5062085;28;20472;-68
2021/10/25 13:16:13;;;;;;;22.60;8.02;;;;;;;;;;5062545;28;20072;-68
2021/10/25 13:18:40;;;;;;;18.58;7.45;;;;;;;;;;5060992;28;20566;-67
2021/10/25 13:21:06;;;;;;;24.33;7.90;;;;;;;;;;5062405;28;20139;-68
2021/10/25 13:23:36;;;;;;;20.55;8.20;;;;;;;;;;5060940;28;20071;-67
2021/10/25 13:26:03;;;;;;;27.38;9.07;;;;;;;;;;5061364;28;20044;-68
2021/10/25 13:28:30;;;;;;;20.17;8.35;;;;;;;;;;5061644;28;20083;-68
2021/10/25 13:30:57;;;;;;;26.77;8.35;;;;;;;;;;5063145;28;20072;-68
2021/10/25 13:33:30;;;;;;;21.48;8.30;;;;;;;;;;5062647;28;20524;-68
2021/10/25 13:35:56;;;;;;;19.00;7.57;;;;;;;;;;5066127;28;20080;-68
2021/10/25 13:38:23;;;;;;;19.48;8.43;;;;;;;;;;5066734;28;20144;-68
2021/10/25 13:40:49;;;;;;;20.75;8.75;;;;;;;;;;5064120;28;20084;-67
2021/10/25 13:43:31;;;;;;;22.52;9.20;;;;;;;;;;5057857;28;20049;-67
2021/10/25 13:45:58;;;;;;;25.40;10.23;;;;;;;;;;5061259;28;20152;-68
2021/10/25 13:48:24;;;;;;;20.35;9.02;;;;;;;;;;5060728;28;20123;-68
2021/10/25 13:50:51;;;;;;;26.08;9.30;;;;;;;;;;5039904;28;20140;-68
2021/10/25 13:53:18;;;;;;;30.30;9.63;;;;;;;;;;5061826;28;20136;-68
2021/10/25 13:55:44;;;;;;;20.10;9.05;;;;;;;;;;5060777;28;20144;-68
2021/10/25 13:58:11;;;;;;;21.85;9.10;;;;;;;;;;5059627;28;20562;-68
2021/10/25 14:00:38;;;;;;;23.87;8.83;;;;;;;;;;5060654;28;20180;-68
2021/10/25 14:03:04;;;;;;;30.37;9.77;;;;;;;;;;5061710;28;20068;-68
2021/10/25 14:05:31;;;;;;;23.35;8.95;;;;;;;;;;5060444;28;20540;-68
2021/10/25 14:07:58;;;;;;;23.05;8.77;;;;;;;;;;5058628;28;20144;-67
2021/10/25 14:10:33;;;;;;;24.70;8.80;;;;;;;;;;5060227;28;20136;-68
2021/10/25 14:13:07;;;;;;;20.33;8.55;;;;;;;;;;5061827;28;20049;-68
2021/10/25 14:15:44;;;;;;;22.70;8.88;;;;;;;;;;5061703;28;20136;-67
2021/10/25 14:18:12;;;;;;;21.85;8.93;;;;;;;;;;5057885;28;20076;-68
2021/10/25 14:20:39;;;;;;;;;;;;;;;;;;5058959;28;20076;-67
2021/10/25 14:23:08;;;;;;;24.45;9.38;;;;;;;;;;5064718;28;19951;-67
2021/10/25 14:25:35;;;;;;;19.17;8.48;;;;;;;;;;5065812;28;20076;-68
2021/10/25 14:28:02;;;;;;;26.50;10.53;;;;;;;;;;5061851;28;20135;-67
2021/10/25 14:30:31;;;;;;;21.25;9.35;;;;;;;;;;5058064;28;20064;-67
2021/10/25 14:32:59;;;;;;;22.15;8.75;;;;;;;;;;5059242;28;20094;-68
2021/10/25 14:35:27;;;;;;;27.92;9.60;;;;;;;;;;5058009;28;20151;-67
2021/10/25 14:37:57;;;;;;;24.33;9.48;;;;;;;;;;5059456;28;20087;-67
2021/10/25 14:40:41;;;;;;;33.92;9.18;;;;;;;;;;5058976;28;20147;-68
2021/10/25 14:43:13;;;;;;;18.45;8.57;;;;;;;;;;5060281;28;20098;-67
2021/10/25 14:45:46;;;;;;;30.23;9.23;;;;;;;;;;5062844;28;20049;-68
2021/10/25 14:48:19;;;;;;;22.67;9.20;;;;;;;;;;5059374;28;20052;-68
2021/10/25 14:53:39;;;;;;;32.88;10.23;;;;;;;;;;5057777;28;20067;-67
2021/10/25 14:56:09;;;;;;;33.30;10.80;;;;;;;;;;5059645;28;20052;-68
2021/10/25 14:58:36;;;;;;;25.48;10.77;;;;;;;;;;5059993;28;20739;-68
2021/10/25 15:01:03;;;;;;;23.33;10.70;;;;;;;;;;5057845;28;20140;-68
2021/10/25 15:03:30;;;;;;;;;;;;;;;;;;5058147;28;20045;-70
2021/10/25 15:05:58;;;;;;;23.33;10.68;;;;;;;;;;5062962;28;19928;-67
2021/10/25 15:08:24;;;;;;;;;;;;;;;;;;5058890;28;20072;-68
2021/10/25 15:10:52;;;;;;;26.67;12.18;;;;;;;;;;5060166;28;19920;-68
2021/10/25 15:13:19;;;;;;;22.80;12.05;;;;;;;;;;5060266;28;20139;-68
2021/10/25 15:15:45;;;;;;;25.02;12.63;;;;;;;;;;5058594;28;20133;-67
2021/10/25 15:18:12;;;;;;;30.10;12.23;;;;;;;;;;5058238;28;20555;-68
2021/10/25 15:20:38;;;;;;;30.52;12.20;;;;;;;;;;5042279;28;20076;-68
2021/10/25 15:23:05;;;;;;;35.73;12.10;;;;;;;;;;5059969;28;20697;-67
2021/10/25 15:25:37;;;;;;;29.80;12.98;;;;;;;;;;5059763;28;20080;-68
2021/10/25 15:28:07;;;;;;;28.13;11.68;;;;;;;;;;5059254;28;20441;-67
2021/10/25 15:30:37;;;;;;;29.27;13.50;;;;;;;;;;5059444;28;20048;-67
2021/10/25 15:33:04;;;;;;;28.85;13.02;;;;;;;;;;5059846;28;20152;-68
2021/10/25 15:35:31;;;;;;;27.48;11.02;;;;;;;;;;5057285;28;20068;-68
2021/10/25 15:37:58;;;;;;;28.40;10.82;;;;;;;;;;5059888;28;20128;-67
2021/10/25 15:40:27;;;;;;;19.20;11.75;;;;;;;;;;5058461;28;20132;-68
2021/10/25 15:42:55;;;;;;;21.33;11.50;;;;;;;;;;5058052;28;20049;-67
2021/10/25 15:45:21;;;;;;;32.00;13.48;;;;;;;;;;5057359;28;20053;-68
2021/10/25 15:47:48;;;;;;;32.08;13.73;;;;;;;;;;5058762;28;20151;-68
2021/10/25 15:50:15;;;;;;;36.28;13.57;;;;;;;;;;5058817;28;20064;-68
2021/10/25 15:52:43;;;;;;;32.95;15.50;;;;;;;;;;5061053;28;20055;-68
2021/10/25 15:55:10;;;;;;;32.67;15.07;;;;;;;;;;5060027;28;20144;-68
2021/10/25 15:57:37;;;;;;;28.55;14.77;;;;;;;;;;5058582;28;20154;-68
2021/10/25 16:00:07;;;;;;;32.75;15.65;;;;;;;;;;5058237;28;20048;-68
2021/10/25 16:02:33;;;;;;;33.05;15.93;;;;;;;;;;5059124;28;20512;-68
2021/10/25 16:05:00;;;;;;;31.40;16.58;;;;;;;;;;5058440;28;20049;-68